KMFE/MFE METAR and TAF weather

Enter ICAO airport designator
Station Type Date Time Source
KMFE METAR 2019/05/25 08:53 UTC NOAA

KMFE 250853Z AUTO 14013KT 10SM BKN017 OVC025 27/24 A2989 RMK AO2 SLP118 T02720239 56012


Station Type Date Time Source
KMFE Decoded METAR 2019/05/25 08:53 UTC NOAA

MCALLEN MILLER INTERNATIONAL AIRPORT , TX, United States (KMFE) 26-11N 98-15W 38M
May 25, 2019 - 04:53 AM EDT / 2019.05.25 0853 UTC
Wind: from the SE (140 degrees) at 15 MPH (13 KT):0
Visibility: 10 mile(s):0
Sky conditions: overcast
Temperature: 81.0 F (27.2 C)
Dew Point: 75.0 F (23.9 C)
Relative Humidity: 82%
Pressure (altimeter): 29.89 in. Hg (1012 hPa)
Pressure tendency: 0.04 inches (1.2 hPa) lower than three hours ago
ob: KMFE 250853Z AUTO 14013KT 10SM BKN017 OVC025 27/24 A2989 RMK AO2 SLP118 T02720239 56012
cycle: 9

Station Type Date Time Source
KMFE TAF 2019/05/25 06:22 UTC NOAA

TAF KMFE 250520Z 2506/2606 13015G20KT P6SM BKN025
FM250800 13013KT P6SM BKN015
FM251500 14018G25KT P6SM SCT040
FM260100 13015G22KT P6SM SCT030
FM260300 14013KT P6SM SCT025

Example: see airport list